sensor_id;sensor_type;location;lat;lon;timestamp;temperature;humidity
3504;DHT22;1766;53.490;10.174;2022-12-16T00:01:07;5.80;42.00
3504;DHT22;1766;53.490;10.174;2022-12-16T00:03:10;5.80;42.20
3504;DHT22;1766;53.490;10.174;2022-12-16T00:05:12;5.80;42.00
3504;DHT22;1766;53.490;10.174;2022-12-16T00:07:14;5.80;42.10
3504;DHT22;1766;53.490;10.174;2022-12-16T00:09:17;5.80;42.20
3504;DHT22;1766;53.490;10.174;2022-12-16T00:11:19;5.80;42.10
3504;DHT22;1766;53.490;10.174;2022-12-16T00:13:21;5.90;42.60
3504;DHT22;1766;53.490;10.174;2022-12-16T00:15:23;5.80;42.20
3504;DHT22;1766;53.490;10.174;2022-12-16T00:17:25;5.80;42.10
3504;DHT22;1766;53.490;10.174;2022-12-16T00:19:27;5.80;42.70
3504;DHT22;1766;53.490;10.174;2022-12-16T00:21:31;5.80;42.10
3504;DHT22;1766;53.490;10.174;2022-12-16T00:23:33;5.80;42.20
3504;DHT22;1766;53.490;10.174;2022-12-16T00:25:36;5.80;42.30
3504;DHT22;1766;53.490;10.174;2022-12-16T00:27:38;5.80;42.20
3504;DHT22;1766;53.490;10.174;2022-12-16T00:29:40;5.90;42.20
3504;DHT22;1766;53.490;10.174;2022-12-16T00:31:42;5.80;42.20
3504;DHT22;1766;53.490;10.174;2022-12-16T00:33:47;5.80;42.10
3504;DHT22;1766;53.490;10.174;2022-12-16T00:35:49;5.80;42.10
3504;DHT22;1766;53.490;10.174;2022-12-16T00:37:51;5.00;41.60
3504;DHT22;1766;53.490;10.174;2022-12-16T00:39:53;5.90;42.20
3504;DHT22;1766;53.490;10.174;2022-12-16T00:41:57;5.80;42.20
3504;DHT22;1766;53.490;10.174;2022-12-16T00:43:58;5.90;42.50
3504;DHT22;1766;53.490;10.174;2022-12-16T00:46:00;5.80;42.20
3504;DHT22;1766;53.490;10.174;2022-12-16T00:48:02;5.80;42.20
3504;DHT22;1766;53.490;10.174;2022-12-16T00:50:05;5.80;42.20
3504;DHT22;1766;53.490;10.174;2022-12-16T00:52:08;5.80;42.20
3504;DHT22;1766;53.490;10.174;2022-12-16T00:54:09;5.80;42.20
3504;DHT22;1766;53.490;10.174;2022-12-16T00:56:12;5.80;42.00
3504;DHT22;1766;53.490;10.174;2022-12-16T00:58:16;5.90;42.30
3504;DHT22;1766;53.490;10.174;2022-12-16T01:00:20;6.00;42.40
3504;DHT22;1766;53.490;10.174;2022-12-16T01:02:23;5.80;42.20
3504;DHT22;1766;53.490;10.174;2022-12-16T01:04:25;5.90;42.10
3504;DHT22;1766;53.490;10.174;2022-12-16T01:06:29;5.90;42.20
3504;DHT22;1766;53.490;10.174;2022-12-16T01:08:31;5.90;42.00
3504;DHT22;1766;53.490;10.174;2022-12-16T01:10:33;5.90;42.10
3504;DHT22;1766;53.490;10.174;2022-12-16T01:12:36;5.90;42.00
3504;DHT22;1766;53.490;10.174;2022-12-16T01:14:39;5.90;42.20
3504;DHT22;1766;53.490;10.174;2022-12-16T01:16:41;5.80;42.10
3504;DHT22;1766;53.490;10.174;2022-12-16T01:18:43;5.90;42.20
3504;DHT22;1766;53.490;10.174;2022-12-16T01:20:44;5.90;41.90
3504;DHT22;1766;53.490;10.174;2022-12-16T01:22:46;5.90;42.20
3504;DHT22;1766;53.490;10.174;2022-12-16T01:24:48;5.90;42.10
3504;DHT22;1766;53.490;10.174;2022-12-16T01:26:50;5.90;42.10
3504;DHT22;1766;53.490;10.174;2022-12-16T01:28:51;5.90;42.00
3504;DHT22;1766;53.490;10.174;2022-12-16T01:30:55;5.90;42.10
3504;DHT22;1766;53.490;10.174;2022-12-16T01:33:00;6.00;41.90
3504;DHT22;1766;53.490;10.174;2022-12-16T01:35:03;5.90;42.20
3504;DHT22;1766;53.490;10.174;2022-12-16T01:37:05;5.90;42.20
3504;DHT22;1766;53.490;10.174;2022-12-16T01:39:07;5.90;42.10
3504;DHT22;1766;53.490;10.174;2022-12-16T01:41:11;6.00;42.20
3504;DHT22;1766;53.490;10.174;2022-12-16T01:43:14;5.90;42.20
3504;DHT22;1766;53.490;10.174;2022-12-16T01:45:33;6.00;42.30
3504;DHT22;1766;53.490;10.174;2022-12-16T01:47:37;5.90;42.10
3504;DHT22;1766;53.490;10.174;2022-12-16T01:49:41;6.00;42.10
3504;DHT22;1766;53.490;10.174;2022-12-16T01:51:45;6.00;42.20
3504;DHT22;1766;53.490;10.174;2022-12-16T01:53:48;5.90;42.20
3504;DHT22;1766;53.490;10.174;2022-12-16T01:55:52;6.00;42.30
3504;DHT22;1766;53.490;10.174;2022-12-16T01:57:59;5.90;42.30
3504;DHT22;1766;53.490;10.174;2022-12-16T02:00:03;6.00;42.30
3504;DHT22;1766;53.490;10.174;2022-12-16T02:02:07;6.00;42.30
3504;DHT22;1766;53.490;10.174;2022-12-16T02:04:10;6.00;42.20
3504;DHT22;1766;53.490;10.174;2022-12-16T02:06:12;5.90;42.00
3504;DHT22;1766;53.490;10.174;2022-12-16T02:08:16;6.00;42.20
3504;DHT22;1766;53.490;10.174;2022-12-16T02:10:23;5.90;42.10
3504;DHT22;1766;53.490;10.174;2022-12-16T02:12:38;5.90;42.10
3504;DHT22;1766;53.490;10.174;2022-12-16T02:14:58;5.90;42.00
3504;DHT22;1766;53.490;10.174;2022-12-16T02:17:13;5.90;42.10
3504;DHT22;1766;53.490;10.174;2022-12-16T02:19:47;5.90;42.10
3504;DHT22;1766;53.490;10.174;2022-12-16T02:22:17;5.90;42.10
3504;DHT22;1766;53.490;10.174;2022-12-16T02:24:45;5.90;42.10
3504;DHT22;1766;53.490;10.174;2022-12-16T02:29:50;5.90;42.00
3504;DHT22;1766;53.490;10.174;2022-12-16T02:32:06;5.80;42.00
3504;DHT22;1766;53.490;10.174;2022-12-16T02:34:17;5.80;41.90
3504;DHT22;1766;53.490;10.174;2022-12-16T02:36:26;5.80;42.00
3504;DHT22;1766;53.490;10.174;2022-12-16T02:38:39;5.90;42.10
3504;DHT22;1766;53.490;10.174;2022-12-16T02:40:50;5.80;42.00
3504;DHT22;1766;53.490;10.174;2022-12-16T02:42:54;5.80;42.00
3504;DHT22;1766;53.490;10.174;2022-12-16T02:45:01;5.80;42.00
3504;DHT22;1766;53.490;10.174;2022-12-16T02:47:06;5.80;42.00
3504;DHT22;1766;53.490;10.174;2022-12-16T02:51:40;5.80;42.00
3504;DHT22;1766;53.490;10.174;2022-12-16T02:53:43;5.80;41.90
3504;DHT22;1766;53.490;10.174;2022-12-16T02:55:53;5.70;41.90
3504;DHT22;1766;53.490;10.174;2022-12-16T02:58:05;5.70;42.00
3504;DHT22;1766;53.490;10.174;2022-12-16T03:02:19;5.70;42.00
3504;DHT22;1766;53.490;10.174;2022-12-16T03:04:30;5.70;41.90
3504;DHT22;1766;53.490;10.174;2022-12-16T03:06:39;5.70;42.00
3504;DHT22;1766;53.490;10.174;2022-12-16T03:08:46;5.70;42.00
3504;DHT22;1766;53.490;10.174;2022-12-16T03:10:54;5.70;42.00
3504;DHT22;1766;53.490;10.174;2022-12-16T03:12:59;5.70;42.00
3504;DHT22;1766;53.490;10.174;2022-12-16T03:15:03;5.70;42.00
3504;DHT22;1766;53.490;10.174;2022-12-16T03:17:08;5.60;41.90
3504;DHT22;1766;53.490;10.174;2022-12-16T03:19:11;5.60;41.90
3504;DHT22;1766;53.490;10.174;2022-12-16T03:21:15;5.50;41.90
3504;DHT22;1766;53.490;10.174;2022-12-16T03:23:23;5.60;41.90
3504;DHT22;1766;53.490;10.174;2022-12-16T03:25:27;5.70;42.10
3504;DHT22;1766;53.490;10.174;2022-12-16T03:27:34;5.50;41.90
3504;DHT22;1766;53.490;10.174;2022-12-16T03:29:49;5.60;41.90
3504;DHT22;1766;53.490;10.174;2022-12-16T03:31:56;5.50;41.90
3504;DHT22;1766;53.490;10.174;2022-12-16T03:34:04;5.60;41.90
3504;DHT22;1766;53.490;10.174;2022-12-16T03:36:16;5.50;41.80
3504;DHT22;1766;53.490;10.174;2022-12-16T03:38:21;5.50;41.70
3504;DHT22;1766;53.490;10.174;2022-12-16T03:40:26;5.50;41.60
3504;DHT22;1766;53.490;10.174;2022-12-16T03:42:29;5.40;41.50
3504;DHT22;1766;53.490;10.174;2022-12-16T03:44:31;5.30;41.30
3504;DHT22;1766;53.490;10.174;2022-12-16T03:46:35;5.30;41.30
3504;DHT22;1766;53.490;10.174;2022-12-16T03:48:45;5.30;41.30
3504;DHT22;1766;53.490;10.174;2022-12-16T03:50:47;5.20;41.30
3504;DHT22;1766;53.490;10.174;2022-12-16T03:52:50;5.20;41.00
3504;DHT22;1766;53.490;10.174;2022-12-16T03:54:52;5.10;40.80
3504;DHT22;1766;53.490;10.174;2022-12-16T03:56:54;5.20;40.90
3504;DHT22;1766;53.490;10.174;2022-12-16T03:58:56;5.00;40.90
3504;DHT22;1766;53.490;10.174;2022-12-16T04:00:58;5.00;40.80
3504;DHT22;1766;53.490;10.174;2022-12-16T04:03:18;5.00;40.70
3504;DHT22;1766;53.490;10.174;2022-12-16T04:05:22;5.00;40.60
3504;DHT22;1766;53.490;10.174;2022-12-16T04:07:23;4.90;40.50
3504;DHT22;1766;53.490;10.174;2022-12-16T04:09:26;4.90;40.40
3504;DHT22;1766;53.490;10.174;2022-12-16T04:11:28;4.90;40.30
3504;DHT22;1766;53.490;10.174;2022-12-16T04:13:44;4.80;40.20
3504;DHT22;1766;53.490;10.174;2022-12-16T04:16:00;4.80;40.20
3504;DHT22;1766;53.490;10.174;2022-12-16T04:18:18;4.70;40.20
3504;DHT22;1766;53.490;10.174;2022-12-16T04:20:36;4.60;40.10
3504;DHT22;1766;53.490;10.174;2022-12-16T04:22:52;4.60;40.20
3504;DHT22;1766;53.490;10.174;2022-12-16T04:25:13;4.60;40.60
3504;DHT22;1766;53.490;10.174;2022-12-16T04:27:17;4.50;40.10
3504;DHT22;1766;53.490;10.174;2022-12-16T04:29:27;4.50;40.10
3504;DHT22;1766;53.490;10.174;2022-12-16T04:31:28;4.40;40.10
3504;DHT22;1766;53.490;10.174;2022-12-16T04:33:30;4.40;40.10
3504;DHT22;1766;53.490;10.174;2022-12-16T04:35:46;4.40;40.10
3504;DHT22;1766;53.490;10.174;2022-12-16T04:38:03;4.40;40.10
3504;DHT22;1766;53.490;10.174;2022-12-16T04:40:20;4.30;40.00
3504;DHT22;1766;53.490;10.174;2022-12-16T04:42:36;4.30;40.10
3504;DHT22;1766;53.490;10.174;2022-12-16T04:44:52;4.20;40.10
3504;DHT22;1766;53.490;10.174;2022-12-16T04:47:07;4.20;40.10
3504;DHT22;1766;53.490;10.174;2022-12-16T04:49:23;4.20;40.10
3504;DHT22;1766;53.490;10.174;2022-12-16T04:51:39;4.20;40.00
3504;DHT22;1766;53.490;10.174;2022-12-16T04:53:55;4.10;40.00
3504;DHT22;1766;53.490;10.174;2022-12-16T04:56:12;4.10;40.00
3504;DHT22;1766;53.490;10.174;2022-12-16T04:58:28;4.10;39.90
3504;DHT22;1766;53.490;10.174;2022-12-16T05:00:45;4.00;39.70
3504;DHT22;1766;53.490;10.174;2022-12-16T05:03:01;3.90;39.70
3504;DHT22;1766;53.490;10.174;2022-12-16T05:05:17;3.90;39.60
3504;DHT22;1766;53.490;10.174;2022-12-16T05:07:33;3.90;39.70
3504;DHT22;1766;53.490;10.174;2022-12-16T05:09:49;3.90;39.60
3504;DHT22;1766;53.490;10.174;2022-12-16T05:12:06;3.90;39.70
3504;DHT22;1766;53.490;10.174;2022-12-16T05:14:22;3.80;39.60
3504;DHT22;1766;53.490;10.174;2022-12-16T05:16:38;3.80;39.50
3504;DHT22;1766;53.490;10.174;2022-12-16T05:18:53;3.70;39.50
3504;DHT22;1766;53.490;10.174;2022-12-16T05:21:09;3.70;39.40
3504;DHT22;1766;53.490;10.174;2022-12-16T05:23:25;3.70;39.40
3504;DHT22;1766;53.490;10.174;2022-12-16T05:25:41;3.70;39.40
3504;DHT22;1766;53.490;10.174;2022-12-16T05:27:58;3.60;39.40
3504;DHT22;1766;53.490;10.174;2022-12-16T05:30:14;3.60;39.40
3504;DHT22;1766;53.490;10.174;2022-12-16T05:32:30;3.50;39.40
3504;DHT22;1766;53.490;10.174;2022-12-16T05:34:46;3.50;39.50
3504;DHT22;1766;53.490;10.174;2022-12-16T05:37:01;3.50;39.60
3504;DHT22;1766;53.490;10.174;2022-12-16T05:39:17;3.50;39.60
3504;DHT22;1766;53.490;10.174;2022-12-16T05:41:33;3.50;39.60
3504;DHT22;1766;53.490;10.174;2022-12-16T05:43:50;3.60;39.60
3504;DHT22;1766;53.490;10.174;2022-12-16T05:46:06;3.50;39.60
3504;DHT22;1766;53.490;10.174;2022-12-16T05:48:21;3.50;39.60
3504;DHT22;1766;53.490;10.174;2022-12-16T05:50:37;3.40;39.60
3504;DHT22;1766;53.490;10.174;2022-12-16T05:52:54;3.50;39.70
3504;DHT22;1766;53.490;10.174;2022-12-16T05:55:10;3.50;39.80
3504;DHT22;1766;53.490;10.174;2022-12-16T05:57:26;3.50;39.80
3504;DHT22;1766;53.490;10.174;2022-12-16T05:59:43;3.50;39.90
3504;DHT22;1766;53.490;10.174;2022-12-16T06:01:59;3.40;40.00
3504;DHT22;1766;53.490;10.174;2022-12-16T06:04:15;3.50;40.00
3504;DHT22;1766;53.490;10.174;2022-12-16T06:06:30;3.50;40.10
3504;DHT22;1766;53.490;10.174;2022-12-16T06:08:46;3.50;40.10
3504;DHT22;1766;53.490;10.174;2022-12-16T06:11:02;3.40;40.10
3504;DHT22;1766;53.490;10.174;2022-12-16T06:13:18;3.40;40.20
3504;DHT22;1766;53.490;10.174;2022-12-16T06:15:35;3.40;40.30
3504;DHT22;1766;53.490;10.174;2022-12-16T06:17:50;3.40;40.30
3504;DHT22;1766;53.490;10.174;2022-12-16T06:20:07;3.40;40.30
3504;DHT22;1766;53.490;10.174;2022-12-16T06:22:23;3.40;40.30
3504;DHT22;1766;53.490;10.174;2022-12-16T06:24:39;3.40;40.20
3504;DHT22;1766;53.490;10.174;2022-12-16T06:26:54;3.40;40.10
3504;DHT22;1766;53.490;10.174;2022-12-16T06:29:10;3.50;40.10
3504;DHT22;1766;53.490;10.174;2022-12-16T06:31:27;3.40;40.00
3504;DHT22;1766;53.490;10.174;2022-12-16T06:33:43;3.40;39.80
3504;DHT22;1766;53.490;10.174;2022-12-16T06:35:59;3.40;39.80
3504;DHT22;1766;53.490;10.174;2022-12-16T06:38:15;3.30;39.80
3504;DHT22;1766;53.490;10.174;2022-12-16T06:40:30;3.20;39.60
3504;DHT22;1766;53.490;10.174;2022-12-16T06:42:46;3.20;39.50
3504;DHT22;1766;53.490;10.174;2022-12-16T06:45:02;3.10;39.70
3504;DHT22;1766;53.490;10.174;2022-12-16T06:47:19;3.10;39.80
3504;DHT22;1766;53.490;10.174;2022-12-16T06:49:35;3.10;39.80
3504;DHT22;1766;53.490;10.174;2022-12-16T06:51:51;2.90;39.60
3504;DHT22;1766;53.490;10.174;2022-12-16T06:54:07;3.00;39.80
3504;DHT22;1766;53.490;10.174;2022-12-16T06:56:22;3.00;39.90
3504;DHT22;1766;53.490;10.174;2022-12-16T06:58:38;3.00;40.00
3504;DHT22;1766;53.490;10.174;2022-12-16T07:00:54;3.00;40.10
3504;DHT22;1766;53.490;10.174;2022-12-16T07:03:11;3.00;40.10
3504;DHT22;1766;53.490;10.174;2022-12-16T07:05:27;3.00;40.20
3504;DHT22;1766;53.490;10.174;2022-12-16T07:07:46;3.00;40.30
3504;DHT22;1766;53.490;10.174;2022-12-16T07:10:02;3.00;40.40
3504;DHT22;1766;53.490;10.174;2022-12-16T07:12:19;3.00;40.40
3504;DHT22;1766;53.490;10.174;2022-12-16T07:14:34;3.00;40.40
3504;DHT22;1766;53.490;10.174;2022-12-16T07:16:50;3.00;40.40
3504;DHT22;1766;53.490;10.174;2022-12-16T07:19:07;3.10;40.30
3504;DHT22;1766;53.490;10.174;2022-12-16T07:21:23;3.10;40.40
3504;DHT22;1766;53.490;10.174;2022-12-16T07:23:39;3.00;40.30
3504;DHT22;1766;53.490;10.174;2022-12-16T07:25:54;3.10;40.30
3504;DHT22;1766;53.490;10.174;2022-12-16T07:28:10;3.00;40.10
3504;DHT22;1766;53.490;10.174;2022-12-16T07:30:26;3.00;40.00
3504;DHT22;1766;53.490;10.174;2022-12-16T07:32:41;3.00;40.00
3504;DHT22;1766;53.490;10.174;2022-12-16T07:34:59;2.90;39.80
3504;DHT22;1766;53.490;10.174;2022-12-16T07:37:14;2.90;39.80
3504;DHT22;1766;53.490;10.174;2022-12-16T07:39:30;2.90;39.80
3504;DHT22;1766;53.490;10.174;2022-12-16T07:41:46;2.70;39.70
3504;DHT22;1766;53.490;10.174;2022-12-16T07:44:02;2.80;39.80
3504;DHT22;1766;53.490;10.174;2022-12-16T07:46:17;2.80;39.90
3504;DHT22;1766;53.490;10.174;2022-12-16T07:48:33;2.80;39.90
3504;DHT22;1766;53.490;10.174;2022-12-16T07:50:50;2.70;40.00
3504;DHT22;1766;53.490;10.174;2022-12-16T07:53:07;2.70;40.10
3504;DHT22;1766;53.490;10.174;2022-12-16T07:55:23;2.70;40.20
3504;DHT22;1766;53.490;10.174;2022-12-16T07:57:38;2.70;40.20
3504;DHT22;1766;53.490;10.174;2022-12-16T07:59:54;2.80;40.20
3504;DHT22;1766;53.490;10.174;2022-12-16T08:02:10;2.80;40.20
3504;DHT22;1766;53.490;10.174;2022-12-16T08:04:26;2.70;40.30
3504;DHT22;1766;53.490;10.174;2022-12-16T08:06:43;2.70;40.40
3504;DHT22;1766;53.490;10.174;2022-12-16T08:08:59;2.90;40.60
3504;DHT22;1766;53.490;10.174;2022-12-16T08:11:14;2.90;40.70
3504;DHT22;1766;53.490;10.174;2022-12-16T08:13:30;2.90;40.80
3504;DHT22;1766;53.490;10.174;2022-12-16T08:15:46;2.90;40.90
3504;DHT22;1766;53.490;10.174;2022-12-16T08:18:02;3.10;41.20
3504;DHT22;1766;53.490;10.174;2022-12-16T08:20:18;3.00;41.20
3504;DHT22;1766;53.490;10.174;2022-12-16T08:22:35;3.10;41.30
3504;DHT22;1766;53.490;10.174;2022-12-16T08:24:50;3.20;41.40
3504;DHT22;1766;53.490;10.174;2022-12-16T08:27:06;3.30;41.50
3504;DHT22;1766;53.490;10.174;2022-12-16T08:29:22;3.30;41.50
3504;DHT22;1766;53.490;10.174;2022-12-16T08:31:38;3.40;41.70
3504;DHT22;1766;53.490;10.174;2022-12-16T08:33:53;3.50;41.80
3504;DHT22;1766;53.490;10.174;2022-12-16T08:36:09;3.60;42.00
3504;DHT22;1766;53.490;10.174;2022-12-16T08:38:26;3.70;42.00
3504;DHT22;1766;53.490;10.174;2022-12-16T08:40:43;3.80;42.10
3504;DHT22;1766;53.490;10.174;2022-12-16T08:42:59;3.90;42.10
3504;DHT22;1766;53.490;10.174;2022-12-16T08:45:15;4.00;42.20
3504;DHT22;1766;53.490;10.174;2022-12-16T08:47:31;4.00;42.10
3504;DHT22;1766;53.490;10.174;2022-12-16T08:49:47;4.10;42.30
3504;DHT22;1766;53.490;10.174;2022-12-16T08:52:03;4.20;42.40
3504;DHT22;1766;53.490;10.174;2022-12-16T08:54:20;4.30;42.40
3504;DHT22;1766;53.490;10.174;2022-12-16T08:56:36;4.40;42.50
3504;DHT22;1766;53.490;10.174;2022-12-16T08:58:52;4.40;42.40
3504;DHT22;1766;53.490;10.174;2022-12-16T09:01:07;4.40;42.50
3504;DHT22;1766;53.490;10.174;2022-12-16T09:03:23;4.50;42.60
3504;DHT22;1766;53.490;10.174;2022-12-16T09:05:39;4.50;42.60
3504;DHT22;1766;53.490;10.174;2022-12-16T09:07:58;4.50;42.60
3504;DHT22;1766;53.490;10.174;2022-12-16T09:10:15;4.60;42.90
3504;DHT22;1766;53.490;10.174;2022-12-16T09:12:31;4.60;42.80
3504;DHT22;1766;53.490;10.174;2022-12-16T09:14:46;4.70;42.80
3504;DHT22;1766;53.490;10.174;2022-12-16T09:17:02;4.70;42.90
3504;DHT22;1766;53.490;10.174;2022-12-16T09:19:18;4.70;42.80
3504;DHT22;1766;53.490;10.174;2022-12-16T09:21:34;4.80;42.80
3504;DHT22;1766;53.490;10.174;2022-12-16T09:23:49;4.90;42.90
3504;DHT22;1766;53.490;10.174;2022-12-16T09:26:06;4.90;43.00
3504;DHT22;1766;53.490;10.174;2022-12-16T09:28:22;4.90;43.00
3504;DHT22;1766;53.490;10.174;2022-12-16T09:30:38;4.90;42.90
3504;DHT22;1766;53.490;10.174;2022-12-16T09:32:54;5.00;43.00
3504;DHT22;1766;53.490;10.174;2022-12-16T09:35:10;5.00;43.00
3504;DHT22;1766;53.490;10.174;2022-12-16T09:37:26;5.00;43.00
3504;DHT22;1766;53.490;10.174;2022-12-16T09:39:42;5.10;43.00
3504;DHT22;1766;53.490;10.174;2022-12-16T09:42:05;5.10;43.00
3504;DHT22;1766;53.490;10.174;2022-12-16T09:44:35;5.20;43.00
3504;DHT22;1766;53.490;10.174;2022-12-16T09:47:04;5.20;43.10
3504;DHT22;1766;53.490;10.174;2022-12-16T09:49:34;5.20;43.10
3504;DHT22;1766;53.490;10.174;2022-12-16T09:51:56;5.20;43.10
3504;DHT22;1766;53.490;10.174;2022-12-16T09:54:15;5.30;43.10
3504;DHT22;1766;53.490;10.174;2022-12-16T09:56:33;6.90;44.40
3504;DHT22;1766;53.490;10.174;2022-12-16T09:58:57;5.30;43.20
3504;DHT22;1766;53.490;10.174;2022-12-16T10:01:14;5.30;43.20
3504;DHT22;1766;53.490;10.174;2022-12-16T10:03:35;5.40;43.20
3504;DHT22;1766;53.490;10.174;2022-12-16T10:05:58;5.40;43.10
3504;DHT22;1766;53.490;10.174;2022-12-16T10:08:21;5.50;43.20
3504;DHT22;1766;53.490;10.174;2022-12-16T10:10:46;5.50;43.30
3504;DHT22;1766;53.490;10.174;2022-12-16T10:13:13;5.60;43.30
3504;DHT22;1766;53.490;10.174;2022-12-16T10:15:39;5.60;43.20
3504;DHT22;1766;53.490;10.174;2022-12-16T10:18:20;5.60;43.30
3504;DHT22;1766;53.490;10.174;2022-12-16T10:20:45;6.80;44.20
3504;DHT22;1766;53.490;10.174;2022-12-16T10:23:09;5.60;43.20
3504;DHT22;1766;53.490;10.174;2022-12-16T10:25:33;5.60;43.20
3504;DHT22;1766;53.490;10.174;2022-12-16T10:27:54;5.60;43.10
3504;DHT22;1766;53.490;10.174;2022-12-16T10:30:14;5.70;43.30
3504;DHT22;1766;53.490;10.174;2022-12-16T10:32:36;5.70;43.20
3504;DHT22;1766;53.490;10.174;2022-12-16T10:34:54;5.80;43.30
3504;DHT22;1766;53.490;10.174;2022-12-16T10:37:13;5.80;43.20
3504;DHT22;1766;53.490;10.174;2022-12-16T10:39:34;5.70;43.20
3504;DHT22;1766;53.490;10.174;2022-12-16T10:41:53;5.80;43.00
3504;DHT22;1766;53.490;10.174;2022-12-16T10:44:17;5.90;43.30
3504;DHT22;1766;53.490;10.174;2022-12-16T10:46:37;5.80;43.20
3504;DHT22;1766;53.490;10.174;2022-12-16T10:48:54;6.00;43.10
3504;DHT22;1766;53.490;10.174;2022-12-16T10:51:12;5.90;43.20
3504;DHT22;1766;53.490;10.174;2022-12-16T10:53:29;5.90;43.10
3504;DHT22;1766;53.490;10.174;2022-12-16T10:55:54;5.90;43.10
3504;DHT22;1766;53.490;10.174;2022-12-16T10:58:19;5.90;43.20
3504;DHT22;1766;53.490;10.174;2022-12-16T11:00:44;5.90;43.20
3504;DHT22;1766;53.490;10.174;2022-12-16T11:03:16;6.00;43.20
3504;DHT22;1766;53.490;10.174;2022-12-16T11:05:34;6.00;43.30
3504;DHT22;1766;53.490;10.174;2022-12-16T11:07:52;6.00;43.20
3504;DHT22;1766;53.490;10.174;2022-12-16T11:10:24;6.10;43.20
3504;DHT22;1766;53.490;10.174;2022-12-16T11:12:41;6.10;43.30
3504;DHT22;1766;53.490;10.174;2022-12-16T11:14:57;6.10;43.10
3504;DHT22;1766;53.490;10.174;2022-12-16T11:17:16;6.10;43.10
3504;DHT22;1766;53.490;10.174;2022-12-16T11:19:33;6.20;43.30
3504;DHT22;1766;53.490;10.174;2022-12-16T11:22:05;6.20;43.20
3504;DHT22;1766;53.490;10.174;2022-12-16T11:24:21;6.20;43.10
3504;DHT22;1766;53.490;10.174;2022-12-16T11:26:51;6.20;43.10
3504;DHT22;1766;53.490;10.174;2022-12-16T11:29:10;6.20;43.10
3504;DHT22;1766;53.490;10.174;2022-12-16T11:31:27;6.20;43.30
3504;DHT22;1766;53.490;10.174;2022-12-16T11:33:43;6.40;43.30
3504;DHT22;1766;53.490;10.174;2022-12-16T11:36:07;6.40;43.40
3504;DHT22;1766;53.490;10.174;2022-12-16T11:38:35;6.40;43.40
3504;DHT22;1766;53.490;10.174;2022-12-16T11:40:54;6.40;43.30
3504;DHT22;1766;53.490;10.174;2022-12-16T11:43:12;6.50;43.20
3504;DHT22;1766;53.490;10.174;2022-12-16T11:45:28;6.50;43.30
3504;DHT22;1766;53.490;10.174;2022-12-16T11:47:48;6.50;43.20
3504;DHT22;1766;53.490;10.174;2022-12-16T11:50:10;6.60;43.40
3504;DHT22;1766;53.490;10.174;2022-12-16T11:52:28;6.70;43.40
3504;DHT22;1766;53.490;10.174;2022-12-16T11:54:56;6.50;43.10
3504;DHT22;1766;53.490;10.174;2022-12-16T11:57:17;6.60;43.30
3504;DHT22;1766;53.490;10.174;2022-12-16T11:59:38;6.60;43.20
3504;DHT22;1766;53.490;10.174;2022-12-16T12:01:58;6.60;43.20
3504;DHT22;1766;53.490;10.174;2022-12-16T12:04:15;6.70;43.30
3504;DHT22;1766;53.490;10.174;2022-12-16T12:06:38;6.70;43.20
3504;DHT22;1766;53.490;10.174;2022-12-16T12:09:06;6.70;43.30
3504;DHT22;1766;53.490;10.174;2022-12-16T12:11:30;6.70;43.20
3504;DHT22;1766;53.490;10.174;2022-12-16T12:13:53;6.70;43.00
3504;DHT22;1766;53.490;10.174;2022-12-16T12:16:17;6.60;43.10
3504;DHT22;1766;53.490;10.174;2022-12-16T12:18:40;6.70;43.20
3504;DHT22;1766;53.490;10.174;2022-12-16T12:21:03;6.70;43.70
3504;DHT22;1766;53.490;10.174;2022-12-16T12:23:33;6.60;43.20
3504;DHT22;1766;53.490;10.174;2022-12-16T12:25:59;6.80;43.20
3504;DHT22;1766;53.490;10.174;2022-12-16T12:28:31;6.80;43.20
3504;DHT22;1766;53.490;10.174;2022-12-16T12:30:56;6.80;43.10
3504;DHT22;1766;53.490;10.174;2022-12-16T12:33:23;6.90;43.10
3504;DHT22;1766;53.490;10.174;2022-12-16T12:35:54;6.90;43.10
3504;DHT22;1766;53.490;10.174;2022-12-16T12:38:16;6.90;43.10
3504;DHT22;1766;53.490;10.174;2022-12-16T12:40:43;7.00;43.10
3504;DHT22;1766;53.490;10.174;2022-12-16T12:43:07;7.00;43.10
3504;DHT22;1766;53.490;10.174;2022-12-16T12:45:46;7.00;43.00
3504;DHT22;1766;53.490;10.174;2022-12-16T12:48:11;7.00;43.00
3504;DHT22;1766;53.490;10.174;2022-12-16T12:50:33;7.00;42.90
3504;DHT22;1766;53.490;10.174;2022-12-16T12:53:06;7.00;42.90
3504;DHT22;1766;53.490;10.174;2022-12-16T12:55:37;6.90;42.80
3504;DHT22;1766;53.490;10.174;2022-12-16T12:57:58;7.00;42.90
3504;DHT22;1766;53.490;10.174;2022-12-16T13:00:17;7.00;42.70
3504;DHT22;1766;53.490;10.174;2022-12-16T13:02:44;6.90;42.70
3504;DHT22;1766;53.490;10.174;2022-12-16T13:05:03;7.00;42.70
3504;DHT22;1766;53.490;10.174;2022-12-16T13:07:19;6.90;42.60
3504;DHT22;1766;53.490;10.174;2022-12-16T13:09:36;6.90;42.70
3504;DHT22;1766;53.490;10.174;2022-12-16T13:14:52;6.80;42.70
3504;DHT22;1766;53.490;10.174;2022-12-16T13:17:10;6.80;42.60
3504;DHT22;1766;53.490;10.174;2022-12-16T13:19:43;6.80;42.40
3504;DHT22;1766;53.490;10.174;2022-12-16T13:21:59;6.80;42.80
3504;DHT22;1766;53.490;10.174;2022-12-16T13:24:19;6.80;42.60
3504;DHT22;1766;53.490;10.174;2022-12-16T13:26:59;6.70;42.60
3504;DHT22;1766;53.490;10.174;2022-12-16T13:29:18;6.80;42.60
3504;DHT22;1766;53.490;10.174;2022-12-16T13:31:58;6.80;42.60
3504;DHT22;1766;53.490;10.174;2022-12-16T13:34:22;6.80;42.60
3504;DHT22;1766;53.490;10.174;2022-12-16T13:36:44;6.90;42.60
3504;DHT22;1766;53.490;10.174;2022-12-16T13:39:21;6.90;42.50
3504;DHT22;1766;53.490;10.174;2022-12-16T13:41:49;6.90;42.60
3504;DHT22;1766;53.490;10.174;2022-12-16T13:44:07;6.90;42.60
3504;DHT22;1766;53.490;10.174;2022-12-16T13:46:38;6.80;42.40
3504;DHT22;1766;53.490;10.174;2022-12-16T13:52:03;6.90;42.60
3504;DHT22;1766;53.490;10.174;2022-12-16T13:54:29;6.90;42.40
3504;DHT22;1766;53.490;10.174;2022-12-16T13:56:48;6.90;42.50
3504;DHT22;1766;53.490;10.174;2022-12-16T13:59:07;6.90;42.40
3504;DHT22;1766;53.490;10.174;2022-12-16T14:01:33;6.90;42.50
3504;DHT22;1766;53.490;10.174;2022-12-16T14:03:52;6.90;42.50
3504;DHT22;1766;53.490;10.174;2022-12-16T14:06:16;6.90;42.50
3504;DHT22;1766;53.490;10.174;2022-12-16T14:08:40;6.90;42.50
3504;DHT22;1766;53.490;10.174;2022-12-16T14:10:59;7.00;42.60
3504;DHT22;1766;53.490;10.174;2022-12-16T14:13:21;6.90;42.50
3504;DHT22;1766;53.490;10.174;2022-12-16T14:15:52;6.90;42.40
3504;DHT22;1766;53.490;10.174;2022-12-16T14:18:22;6.90;42.50
3504;DHT22;1766;53.490;10.174;2022-12-16T14:20:47;6.90;42.60
3504;DHT22;1766;53.490;10.174;2022-12-16T14:23:19;6.90;42.60
3504;DHT22;1766;53.490;10.174;2022-12-16T14:25:44;6.80;42.60
3504;DHT22;1766;53.490;10.174;2022-12-16T14:28:00;6.90;42.60
3504;DHT22;1766;53.490;10.174;2022-12-16T14:30:24;6.80;42.40
3504;DHT22;1766;53.490;10.174;2022-12-16T14:32:40;6.80;42.50
3504;DHT22;1766;53.490;10.174;2022-12-16T14:35:00;6.80;42.40
3504;DHT22;1766;53.490;10.174;2022-12-16T14:37:18;6.80;42.50
3504;DHT22;1766;53.490;10.174;2022-12-16T14:39:38;6.80;42.60
3504;DHT22;1766;53.490;10.174;2022-12-16T14:41:55;6.80;42.50
3504;DHT22;1766;53.490;10.174;2022-12-16T14:44:17;6.80;42.50
3504;DHT22;1766;53.490;10.174;2022-12-16T14:46:35;6.80;42.60
3504;DHT22;1766;53.490;10.174;2022-12-16T14:48:51;6.80;42.50
3504;DHT22;1766;53.490;10.174;2022-12-16T14:51:23;6.80;42.50
3504;DHT22;1766;53.490;10.174;2022-12-16T14:53:41;6.70;42.50
3504;DHT22;1766;53.490;10.174;2022-12-16T14:56:09;6.80;42.40